sensor_id;sensor_type;location;lat;lon;timestamp;temperature;humidity
2913;DHT22;1466;48.778;9.166;2023-01-19T00:00:01;2.00;99.50
2913;DHT22;1466;48.778;9.166;2023-01-19T00:02:26;1.90;99.50
2913;DHT22;1466;48.778;9.166;2023-01-19T00:04:52;2.00;99.70
2913;DHT22;1466;48.778;9.166;2023-01-19T00:07:17;2.00;99.50
2913;DHT22;1466;48.778;9.166;2023-01-19T00:09:43;2.00;99.50
2913;DHT22;1466;48.778;9.166;2023-01-19T00:12:09;2.00;99.40
2913;DHT22;1466;48.778;9.166;2023-01-19T00:14:35;1.90;99.40
2913;DHT22;1466;48.778;9.166;2023-01-19T00:17:00;2.00;99.60
2913;DHT22;1466;48.778;9.166;2023-01-19T00:19:26;2.00;99.70
2913;DHT22;1466;48.778;9.166;2023-01-19T00:21:52;1.90;99.60
2913;DHT22;1466;48.778;9.166;2023-01-19T00:24:18;1.90;99.50
2913;DHT22;1466;48.778;9.166;2023-01-19T00:26:44;1.90;99.70
2913;DHT22;1466;48.778;9.166;2023-01-19T00:29:10;1.90;99.80
2913;DHT22;1466;48.778;9.166;2023-01-19T00:31:36;1.90;99.80
2913;DHT22;1466;48.778;9.166;2023-01-19T00:34:03;1.90;99.70
2913;DHT22;1466;48.778;9.166;2023-01-19T00:36:28;1.80;99.60
2913;DHT22;1466;48.778;9.166;2023-01-19T00:38:54;1.80;99.70
2913;DHT22;1466;48.778;9.166;2023-01-19T00:41:19;1.80;99.80
2913;DHT22;1466;48.778;9.166;2023-01-19T00:44:05;1.80;99.80
2913;DHT22;1466;48.778;9.166;2023-01-19T00:46:31;1.80;99.70
2913;DHT22;1466;48.778;9.166;2023-01-19T00:48:56;1.70;99.80
2913;DHT22;1466;48.778;9.166;2023-01-19T00:51:22;1.80;99.90
2913;DHT22;1466;48.778;9.166;2023-01-19T00:53:47;1.80;99.90
2913;DHT22;1466;48.778;9.166;2023-01-19T00:56:13;1.80;99.80
2913;DHT22;1466;48.778;9.166;2023-01-19T00:58:38;1.80;99.80
2913;DHT22;1466;48.778;9.166;2023-01-19T01:01:04;1.90;99.90
2913;DHT22;1466;48.778;9.166;2023-01-19T01:03:30;1.90;99.90
2913;DHT22;1466;48.778;9.166;2023-01-19T01:05:56;1.80;99.60
2913;DHT22;1466;48.778;9.166;2023-01-19T01:08:22;1.80;99.70
2913;DHT22;1466;48.778;9.166;2023-01-19T01:10:47;1.80;99.70
2913;DHT22;1466;48.778;9.166;2023-01-19T01:13:13;1.70;99.60
2913;DHT22;1466;48.778;9.166;2023-01-19T01:15:38;1.70;99.70
2913;DHT22;1466;48.778;9.166;2023-01-19T01:18:04;1.70;99.90
2913;DHT22;1466;48.778;9.166;2023-01-19T01:20:30;1.70;99.80
2913;DHT22;1466;48.778;9.166;2023-01-19T01:22:57;1.70;99.90
2913;DHT22;1466;48.778;9.166;2023-01-19T01:25:25;1.70;99.80
2913;DHT22;1466;48.778;9.166;2023-01-19T01:27:52;1.70;99.80
2913;DHT22;1466;48.778;9.166;2023-01-19T01:30:18;1.70;99.90
2913;DHT22;1466;48.778;9.166;2023-01-19T01:32:43;1.60;99.70
2913;DHT22;1466;48.778;9.166;2023-01-19T01:35:09;1.60;99.80
2913;DHT22;1466;48.778;9.166;2023-01-19T01:37:36;1.50;99.90
2913;DHT22;1466;48.778;9.166;2023-01-19T01:40:03;1.50;99.90
2913;DHT22;1466;48.778;9.166;2023-01-19T01:42:30;1.50;99.90
2913;DHT22;1466;48.778;9.166;2023-01-19T01:45:01;1.60;99.90
2913;DHT22;1466;48.778;9.166;2023-01-19T01:47:43;1.50;99.90
2913;DHT22;1466;48.778;9.166;2023-01-19T01:50:25;1.40;99.90
2913;DHT22;1466;48.778;9.166;2023-01-19T01:52:55;1.40;99.90
2913;DHT22;1466;48.778;9.166;2023-01-19T01:55:22;1.50;99.90
2913;DHT22;1466;48.778;9.166;2023-01-19T01:57:51;1.50;99.90
2913;DHT22;1466;48.778;9.166;2023-01-19T02:00:18;1.60;99.90
2913;DHT22;1466;48.778;9.166;2023-01-19T02:02:44;1.60;99.90
2913;DHT22;1466;48.778;9.166;2023-01-19T02:05:33;1.50;99.80
2913;DHT22;1466;48.778;9.166;2023-01-19T02:08:26;1.40;99.80
2913;DHT22;1466;48.778;9.166;2023-01-19T02:11:12;1.40;99.90
2913;DHT22;1466;48.778;9.166;2023-01-19T02:13:56;1.30;99.90
2913;DHT22;1466;48.778;9.166;2023-01-19T02:16:22;1.20;99.90
2913;DHT22;1466;48.778;9.166;2023-01-19T02:18:48;1.10;99.90
2913;DHT22;1466;48.778;9.166;2023-01-19T02:21:37;1.10;99.90
2913;DHT22;1466;48.778;9.166;2023-01-19T02:24:07;1.00;99.90
2913;DHT22;1466;48.778;9.166;2023-01-19T02:26:36;1.00;99.90
2913;DHT22;1466;48.778;9.166;2023-01-19T02:29:08;1.10;99.90
2913;DHT22;1466;48.778;9.166;2023-01-19T02:31:36;1.10;99.90
2913;DHT22;1466;48.778;9.166;2023-01-19T02:34:05;1.10;99.90
2913;DHT22;1466;48.778;9.166;2023-01-19T02:36:44;1.10;99.90
2913;DHT22;1466;48.778;9.166;2023-01-19T02:39:12;1.10;99.90
2913;DHT22;1466;48.778;9.166;2023-01-19T02:41:45;1.10;99.90
2913;DHT22;1466;48.778;9.166;2023-01-19T02:44:14;1.10;99.90
2913;DHT22;1466;48.778;9.166;2023-01-19T02:46:40;1.00;99.90
2913;DHT22;1466;48.778;9.166;2023-01-19T02:49:06;1.00;99.90
2913;DHT22;1466;48.778;9.166;2023-01-19T02:51:32;1.00;99.90
2913;DHT22;1466;48.778;9.166;2023-01-19T02:54:04;1.10;99.90
2913;DHT22;1466;48.778;9.166;2023-01-19T02:59:34;1.10;99.90
2913;DHT22;1466;48.778;9.166;2023-01-19T03:02:13;1.10;99.90
2913;DHT22;1466;48.778;9.166;2023-01-19T03:07:29;1.10;99.90
2913;DHT22;1466;48.778;9.166;2023-01-19T03:12:45;1.00;99.90
2913;DHT22;1466;48.778;9.166;2023-01-19T03:17:48;0.90;99.90
2913;DHT22;1466;48.778;9.166;2023-01-19T03:20:18;0.90;99.90
2913;DHT22;1466;48.778;9.166;2023-01-19T03:22:48;0.80;99.90
2913;DHT22;1466;48.778;9.166;2023-01-19T03:25:17;0.80;99.90
2913;DHT22;1466;48.778;9.166;2023-01-19T03:27:45;0.80;99.90
2913;DHT22;1466;48.778;9.166;2023-01-19T03:30:23;0.90;99.90
2913;DHT22;1466;48.778;9.166;2023-01-19T03:33:01;1.00;99.90
2913;DHT22;1466;48.778;9.166;2023-01-19T03:35:32;1.00;99.90
2913;DHT22;1466;48.778;9.166;2023-01-19T03:38:04;1.00;99.90
2913;DHT22;1466;48.778;9.166;2023-01-19T03:40:33;1.10;99.90
2913;DHT22;1466;48.778;9.166;2023-01-19T03:43:00;1.10;99.90
2913;DHT22;1466;48.778;9.166;2023-01-19T03:45:26;1.10;99.90
2913;DHT22;1466;48.778;9.166;2023-01-19T03:47:53;1.10;99.90
2913;DHT22;1466;48.778;9.166;2023-01-19T03:50:25;1.20;99.90
2913;DHT22;1466;48.778;9.166;2023-01-19T03:55:33;1.30;99.90
2913;DHT22;1466;48.778;9.166;2023-01-19T03:57:59;1.20;99.90
2913;DHT22;1466;48.778;9.166;2023-01-19T04:00:24;1.20;99.90
2913;DHT22;1466;48.778;9.166;2023-01-19T04:02:50;1.20;99.90
2913;DHT22;1466;48.778;9.166;2023-01-19T04:05:16;1.20;99.90
2913;DHT22;1466;48.778;9.166;2023-01-19T04:07:41;1.20;99.90
2913;DHT22;1466;48.778;9.166;2023-01-19T04:10:07;1.20;99.90
2913;DHT22;1466;48.778;9.166;2023-01-19T04:12:37;1.30;99.90
2913;DHT22;1466;48.778;9.166;2023-01-19T04:17:34;1.20;99.80
2913;DHT22;1466;48.778;9.166;2023-01-19T04:19:59;1.10;99.70
2913;DHT22;1466;48.778;9.166;2023-01-19T04:22:25;1.00;99.80
2913;DHT22;1466;48.778;9.166;2023-01-19T04:24:51;0.90;99.90
2913;DHT22;1466;48.778;9.166;2023-01-19T04:27:17;0.90;99.90
2913;DHT22;1466;48.778;9.166;2023-01-19T04:29:44;0.90;99.90
2913;DHT22;1466;48.778;9.166;2023-01-19T04:32:09;0.90;99.90
2913;DHT22;1466;48.778;9.166;2023-01-19T04:34:37;0.90;99.90
2913;DHT22;1466;48.778;9.166;2023-01-19T04:37:02;0.90;99.90
2913;DHT22;1466;48.778;9.166;2023-01-19T04:39:28;1.00;99.90
2913;DHT22;1466;48.778;9.166;2023-01-19T04:41:53;0.90;99.90
2913;DHT22;1466;48.778;9.166;2023-01-19T04:44:20;0.90;99.90
2913;DHT22;1466;48.778;9.166;2023-01-19T04:46:46;0.90;99.90
2913;DHT22;1466;48.778;9.166;2023-01-19T04:49:12;0.90;99.90
2913;DHT22;1466;48.778;9.166;2023-01-19T04:51:38;0.80;99.90
2913;DHT22;1466;48.778;9.166;2023-01-19T04:54:03;0.70;99.90
2913;DHT22;1466;48.778;9.166;2023-01-19T04:56:29;0.70;99.90
2913;DHT22;1466;48.778;9.166;2023-01-19T04:58:55;0.70;99.90
2913;DHT22;1466;48.778;9.166;2023-01-19T05:01:20;0.80;99.90
2913;DHT22;1466;48.778;9.166;2023-01-19T05:03:46;0.90;99.90
2913;DHT22;1466;48.778;9.166;2023-01-19T05:06:12;0.80;99.90
2913;DHT22;1466;48.778;9.166;2023-01-19T05:08:38;0.80;99.90
2913;DHT22;1466;48.778;9.166;2023-01-19T05:11:03;0.80;99.90
2913;DHT22;1466;48.778;9.166;2023-01-19T05:13:29;0.80;99.90
2913;DHT22;1466;48.778;9.166;2023-01-19T05:15:55;0.90;99.90
2913;DHT22;1466;48.778;9.166;2023-01-19T05:18:20;1.00;99.90
2913;DHT22;1466;48.778;9.166;2023-01-19T05:20:46;0.90;99.90
2913;DHT22;1466;48.778;9.166;2023-01-19T05:23:11;0.90;99.90
2913;DHT22;1466;48.778;9.166;2023-01-19T05:25:37;0.90;99.90
2913;DHT22;1466;48.778;9.166;2023-01-19T05:28:03;1.00;99.90
2913;DHT22;1466;48.778;9.166;2023-01-19T05:30:28;1.00;99.90
2913;DHT22;1466;48.778;9.166;2023-01-19T05:32:54;1.00;99.90
2913;DHT22;1466;48.778;9.166;2023-01-19T05:35:19;1.00;99.90
2913;DHT22;1466;48.778;9.166;2023-01-19T05:37:45;1.00;99.90
2913;DHT22;1466;48.778;9.166;2023-01-19T05:40:11;1.00;99.90
2913;DHT22;1466;48.778;9.166;2023-01-19T05:42:37;0.90;99.90
2913;DHT22;1466;48.778;9.166;2023-01-19T05:45:04;0.80;99.90
2913;DHT22;1466;48.778;9.166;2023-01-19T05:47:29;0.80;99.90
2913;DHT22;1466;48.778;9.166;2023-01-19T05:49:55;0.80;99.90
2913;DHT22;1466;48.778;9.166;2023-01-19T05:52:21;0.90;99.90
2913;DHT22;1466;48.778;9.166;2023-01-19T05:54:47;0.90;99.90
2913;DHT22;1466;48.778;9.166;2023-01-19T05:57:13;0.90;99.90
2913;DHT22;1466;48.778;9.166;2023-01-19T05:59:39;0.90;99.90
2913;DHT22;1466;48.778;9.166;2023-01-19T06:02:05;1.00;99.90
2913;DHT22;1466;48.778;9.166;2023-01-19T06:04:30;0.90;99.90
2913;DHT22;1466;48.778;9.166;2023-01-19T06:06:56;0.90;99.90
2913;DHT22;1466;48.778;9.166;2023-01-19T06:09:22;0.90;99.90
2913;DHT22;1466;48.778;9.166;2023-01-19T06:11:47;0.90;99.90
2913;DHT22;1466;48.778;9.166;2023-01-19T06:14:13;0.90;99.90
2913;DHT22;1466;48.778;9.166;2023-01-19T06:16:39;0.90;99.90
2913;DHT22;1466;48.778;9.166;2023-01-19T06:19:05;0.90;99.90
2913;DHT22;1466;48.778;9.166;2023-01-19T06:21:31;1.00;99.90
2913;DHT22;1466;48.778;9.166;2023-01-19T06:23:56;1.00;99.90
2913;DHT22;1466;48.778;9.166;2023-01-19T06:26:23;1.10;99.90
2913;DHT22;1466;48.778;9.166;2023-01-19T06:28:50;1.00;99.90
2913;DHT22;1466;48.778;9.166;2023-01-19T06:31:15;1.00;99.90
2913;DHT22;1466;48.778;9.166;2023-01-19T06:33:41;1.10;99.90
2913;DHT22;1466;48.778;9.166;2023-01-19T06:36:08;1.10;99.90
2913;DHT22;1466;48.778;9.166;2023-01-19T06:38:34;1.00;99.90
2913;DHT22;1466;48.778;9.166;2023-01-19T06:40:59;0.90;99.90
2913;DHT22;1466;48.778;9.166;2023-01-19T06:43:28;0.90;99.90
2913;DHT22;1466;48.778;9.166;2023-01-19T06:45:54;0.90;99.90
2913;DHT22;1466;48.778;9.166;2023-01-19T06:48:20;0.80;99.90
2913;DHT22;1466;48.778;9.166;2023-01-19T06:50:46;0.80;99.90
2913;DHT22;1466;48.778;9.166;2023-01-19T06:53:13;0.80;99.90
2913;DHT22;1466;48.778;9.166;2023-01-19T06:55:43;0.70;99.90
2913;DHT22;1466;48.778;9.166;2023-01-19T06:58:09;0.70;99.90
2913;DHT22;1466;48.778;9.166;2023-01-19T07:00:35;0.70;99.90
2913;DHT22;1466;48.778;9.166;2023-01-19T07:03:01;0.80;99.90
2913;DHT22;1466;48.778;9.166;2023-01-19T07:05:26;0.80;99.90
2913;DHT22;1466;48.778;9.166;2023-01-19T07:07:53;0.80;99.90
2913;DHT22;1466;48.778;9.166;2023-01-19T07:10:19;0.80;99.90
2913;DHT22;1466;48.778;9.166;2023-01-19T07:12:45;0.90;99.90
2913;DHT22;1466;48.778;9.166;2023-01-19T07:15:12;1.00;99.90
2913;DHT22;1466;48.778;9.166;2023-01-19T07:17:39;1.10;99.90
2913;DHT22;1466;48.778;9.166;2023-01-19T07:20:07;1.10;99.90
2913;DHT22;1466;48.778;9.166;2023-01-19T07:22:33;1.20;99.90
2913;DHT22;1466;48.778;9.166;2023-01-19T07:24:58;1.20;99.90
2913;DHT22;1466;48.778;9.166;2023-01-19T07:27:25;1.20;99.90
2913;DHT22;1466;48.778;9.166;2023-01-19T07:29:52;1.20;99.90
2913;DHT22;1466;48.778;9.166;2023-01-19T07:32:17;1.30;99.90
2913;DHT22;1466;48.778;9.166;2023-01-19T07:34:43;1.20;99.90
2913;DHT22;1466;48.778;9.166;2023-01-19T07:37:09;1.20;99.90
2913;DHT22;1466;48.778;9.166;2023-01-19T07:39:35;1.20;99.90
2913;DHT22;1466;48.778;9.166;2023-01-19T07:42:01;1.30;99.90
2913;DHT22;1466;48.778;9.166;2023-01-19T07:44:26;1.30;99.90
2913;DHT22;1466;48.778;9.166;2023-01-19T07:46:52;1.20;99.90
2913;DHT22;1466;48.778;9.166;2023-01-19T07:49:17;1.20;99.90
2913;DHT22;1466;48.778;9.166;2023-01-19T07:51:45;1.20;99.90
2913;DHT22;1466;48.778;9.166;2023-01-19T07:54:12;1.20;99.90
2913;DHT22;1466;48.778;9.166;2023-01-19T07:56:38;1.20;99.90
2913;DHT22;1466;48.778;9.166;2023-01-19T07:59:03;1.20;99.90
2913;DHT22;1466;48.778;9.166;2023-01-19T08:01:29;1.20;99.90
2913;DHT22;1466;48.778;9.166;2023-01-19T08:03:55;1.30;99.90
2913;DHT22;1466;48.778;9.166;2023-01-19T08:06:24;1.30;99.90
2913;DHT22;1466;48.778;9.166;2023-01-19T08:08:51;1.30;99.80
2913;DHT22;1466;48.778;9.166;2023-01-19T08:11:17;1.30;99.60
2913;DHT22;1466;48.778;9.166;2023-01-19T08:13:43;1.30;99.70
2913;DHT22;1466;48.778;9.166;2023-01-19T08:16:08;1.30;99.80
2913;DHT22;1466;48.778;9.166;2023-01-19T08:18:34;1.40;99.70
2913;DHT22;1466;48.778;9.166;2023-01-19T08:21:02;1.40;99.70
2913;DHT22;1466;48.778;9.166;2023-01-19T08:23:28;1.40;99.70
2913;DHT22;1466;48.778;9.166;2023-01-19T08:25:54;1.50;99.80
2913;DHT22;1466;48.778;9.166;2023-01-19T08:28:20;1.50;99.60
2913;DHT22;1466;48.778;9.166;2023-01-19T08:30:47;1.60;99.70
2913;DHT22;1466;48.778;9.166;2023-01-19T08:33:20;1.60;99.80
2913;DHT22;1466;48.778;9.166;2023-01-19T08:35:48;1.70;99.70
2913;DHT22;1466;48.778;9.166;2023-01-19T08:38:14;1.80;99.70
2913;DHT22;1466;48.778;9.166;2023-01-19T08:40:40;1.80;99.50
2913;DHT22;1466;48.778;9.166;2023-01-19T08:43:13;1.80;99.50
2913;DHT22;1466;48.778;9.166;2023-01-19T08:45:42;1.80;99.50
2913;DHT22;1466;48.778;9.166;2023-01-19T08:48:13;1.90;99.40
2913;DHT22;1466;48.778;9.166;2023-01-19T08:50:39;1.90;99.40
2913;DHT22;1466;48.778;9.166;2023-01-19T08:53:05;1.90;99.40
2913;DHT22;1466;48.778;9.166;2023-01-19T08:55:33;2.00;99.40
2913;DHT22;1466;48.778;9.166;2023-01-19T08:57:59;2.00;99.30
2913;DHT22;1466;48.778;9.166;2023-01-19T09:00:26;2.00;99.30
2913;DHT22;1466;48.778;9.166;2023-01-19T09:02:53;2.10;99.40
2913;DHT22;1466;48.778;9.166;2023-01-19T09:05:19;2.20;99.40
2913;DHT22;1466;48.778;9.166;2023-01-19T09:07:45;2.30;99.40
2913;DHT22;1466;48.778;9.166;2023-01-19T09:10:15;2.40;99.40
2913;DHT22;1466;48.778;9.166;2023-01-19T09:12:40;2.50;99.30
2913;DHT22;1466;48.778;9.166;2023-01-19T09:15:07;2.60;99.20
2913;DHT22;1466;48.778;9.166;2023-01-19T09:17:32;2.60;99.30
2913;DHT22;1466;48.778;9.166;2023-01-19T09:19:58;2.80;99.40
2913;DHT22;1466;48.778;9.166;2023-01-19T09:22:24;3.00;99.00
2913;DHT22;1466;48.778;9.166;2023-01-19T09:24:49;2.90;98.90
2913;DHT22;1466;48.778;9.166;2023-01-19T09:27:15;2.90;98.90
2913;DHT22;1466;48.778;9.166;2023-01-19T09:29:41;2.90;98.80
2913;DHT22;1466;48.778;9.166;2023-01-19T09:32:07;2.90;98.90
2913;DHT22;1466;48.778;9.166;2023-01-19T09:34:33;3.00;98.80
2913;DHT22;1466;48.778;9.166;2023-01-19T09:36:59;3.10;98.80
2913;DHT22;1466;48.778;9.166;2023-01-19T09:39:24;3.10;98.80
2913;DHT22;1466;48.778;9.166;2023-01-19T09:42:08;3.20;98.80
2913;DHT22;1466;48.778;9.166;2023-01-19T09:44:38;3.30;98.40
2913;DHT22;1466;48.778;9.166;2023-01-19T09:47:13;3.30;98.40
2913;DHT22;1466;48.778;9.166;2023-01-19T09:50:04;3.20;98.30
2913;DHT22;1466;48.778;9.166;2023-01-19T09:52:33;3.30;98.40
2913;DHT22;1466;48.778;9.166;2023-01-19T09:55:00;3.30;98.30
2913;DHT22;1466;48.778;9.166;2023-01-19T09:57:26;3.40;98.20
2913;DHT22;1466;48.778;9.166;2023-01-19T09:59:52;3.40;98.10
2913;DHT22;1466;48.778;9.166;2023-01-19T10:02:41;3.40;98.20
2913;DHT22;1466;48.778;9.166;2023-01-19T10:08:38;3.60;98.10
2913;DHT22;1466;48.778;9.166;2023-01-19T10:11:20;3.70;97.90
2913;DHT22;1466;48.778;9.166;2023-01-19T10:13:51;3.60;97.80
2913;DHT22;1466;48.778;9.166;2023-01-19T10:19:32;3.70;98.00
2913;DHT22;1466;48.778;9.166;2023-01-19T10:22:04;3.80;97.80
2913;DHT22;1466;48.778;9.166;2023-01-19T10:24:42;3.80;97.80
2913;DHT22;1466;48.778;9.166;2023-01-19T10:27:14;3.90;97.90
2913;DHT22;1466;48.778;9.166;2023-01-19T10:29:40;3.90;97.90
2913;DHT22;1466;48.778;9.166;2023-01-19T10:32:10;4.00;97.80
2913;DHT22;1466;48.778;9.166;2023-01-19T10:34:38;3.90;97.60
2913;DHT22;1466;48.778;9.166;2023-01-19T10:39:45;3.90;97.50
2913;DHT22;1466;48.778;9.166;2023-01-19T10:42:14;4.00;97.60
2913;DHT22;1466;48.778;9.166;2023-01-19T10:44:41;4.00;97.50
2913;DHT22;1466;48.778;9.166;2023-01-19T10:47:18;4.00;97.30
2913;DHT22;1466;48.778;9.166;2023-01-19T10:49:45;4.00;97.50
2913;DHT22;1466;48.778;9.166;2023-01-19T10:52:32;4.00;97.40
2913;DHT22;1466;48.778;9.166;2023-01-19T10:55:01;4.00;97.40
2913;DHT22;1466;48.778;9.166;2023-01-19T10:57:31;4.00;97.30
2913;DHT22;1466;48.778;9.166;2023-01-19T10:59:58;4.00;97.30
2913;DHT22;1466;48.778;9.166;2023-01-19T11:02:29;4.00;97.20
2913;DHT22;1466;48.778;9.166;2023-01-19T11:04:57;3.80;97.10
2913;DHT22;1466;48.778;9.166;2023-01-19T11:07:33;3.90;97.40
2913;DHT22;1466;48.778;9.166;2023-01-19T11:12:53;4.00;97.40
2913;DHT22;1466;48.778;9.166;2023-01-19T11:15:21;4.00;97.20
2913;DHT22;1466;48.778;9.166;2023-01-19T11:17:48;4.00;97.20
2913;DHT22;1466;48.778;9.166;2023-01-19T11:20:20;4.00;97.30
2913;DHT22;1466;48.778;9.166;2023-01-19T11:22:46;4.00;97.30
2913;DHT22;1466;48.778;9.166;2023-01-19T11:25:23;4.10;97.30
2913;DHT22;1466;48.778;9.166;2023-01-19T11:27:52;4.10;97.30
2913;DHT22;1466;48.778;9.166;2023-01-19T11:30:23;4.20;97.20
2913;DHT22;1466;48.778;9.166;2023-01-19T11:32:50;4.30;97.10
2913;DHT22;1466;48.778;9.166;2023-01-19T11:35:38;4.30;97.00
2913;DHT22;1466;48.778;9.166;2023-01-19T11:38:20;4.20;97.10
2913;DHT22;1466;48.778;9.166;2023-01-19T11:40:58;4.30;97.10
2913;DHT22;1466;48.778;9.166;2023-01-19T11:43:27;4.30;97.40
2913;DHT22;1466;48.778;9.166;2023-01-19T11:45:55;4.30;97.10
2913;DHT22;1466;48.778;9.166;2023-01-19T11:48:54;4.40;97.10
2913;DHT22;1466;48.778;9.166;2023-01-19T11:51:29;4.50;97.00
2913;DHT22;1466;48.778;9.166;2023-01-19T11:53:55;4.40;96.90
2913;DHT22;1466;48.778;9.166;2023-01-19T11:56:23;4.50;97.00
2913;DHT22;1466;48.778;9.166;2023-01-19T11:58:50;4.60;97.30
2913;DHT22;1466;48.778;9.166;2023-01-19T12:01:23;4.60;96.90
2913;DHT22;1466;48.778;9.166;2023-01-19T12:04:11;4.60;96.90
2913;DHT22;1466;48.778;9.166;2023-01-19T12:06:48;4.60;96.90
2913;DHT22;1466;48.778;9.166;2023-01-19T12:09:22;4.60;96.70
2913;DHT22;1466;48.778;9.166;2023-01-19T12:12:02;4.50;96.80
2913;DHT22;1466;48.778;9.166;2023-01-19T12:17:39;4.50;96.70
2913;DHT22;1466;48.778;9.166;2023-01-19T12:22:51;4.50;96.70
2913;DHT22;1466;48.778;9.166;2023-01-19T12:25:21;4.50;96.70
2913;DHT22;1466;48.778;9.166;2023-01-19T12:27:48;4.50;96.60
2913;DHT22;1466;48.778;9.166;2023-01-19T12:30:16;4.60;96.70
2913;DHT22;1466;48.778;9.166;2023-01-19T12:32:43;4.60;96.70
2913;DHT22;1466;48.778;9.166;2023-01-19T12:38:23;4.70;97.00
2913;DHT22;1466;48.778;9.166;2023-01-19T12:41:34;4.70;96.50
2913;DHT22;1466;48.778;9.166;2023-01-19T12:46:49;4.60;96.40
2913;DHT22;1466;48.778;9.166;2023-01-19T12:51:45;4.50;96.50
2913;DHT22;1466;48.778;9.166;2023-01-19T12:56:47;4.50;96.60
2913;DHT22;1466;48.778;9.166;2023-01-19T12:59:24;4.50;96.60
2913;DHT22;1466;48.778;9.166;2023-01-19T13:05:12;4.60;96.80
2913;DHT22;1466;48.778;9.166;2023-01-19T13:11:18;4.70;96.80
2913;DHT22;1466;48.778;9.166;2023-01-19T13:18:44;4.70;96.60
2913;DHT22;1466;48.778;9.166;2023-01-19T13:21:30;4.70;96.70
2913;DHT22;1466;48.778;9.166;2023-01-19T13:24:04;4.70;96.60
2913;DHT22;1466;48.778;9.166;2023-01-19T13:26:32;4.60;96.60
2913;DHT22;1466;48.778;9.166;2023-01-19T13:29:13;4.40;96.90
2913;DHT22;1466;48.778;9.166;2023-01-19T13:31:42;4.30;97.60
2913;DHT22;1466;48.778;9.166;2023-01-19T13:34:21;3.90;98.30
2913;DHT22;1466;48.778;9.166;2023-01-19T13:36:53;3.90;98.60
2913;DHT22;1466;48.778;9.166;2023-01-19T13:39:41;3.90;98.80
2913;DHT22;1466;48.778;9.166;2023-01-19T13:44:54;3.70;99.50
2913;DHT22;1466;48.778;9.166;2023-01-19T13:47:25;3.60;99.80
2913;DHT22;1466;48.778;9.166;2023-01-19T13:49:56;3.70;99.90
2913;DHT22;1466;48.778;9.166;2023-01-19T13:52:27;3.50;99.90
2913;DHT22;1466;48.778;9.166;2023-01-19T13:55:01;3.50;99.90
2913;DHT22;1466;48.778;9.166;2023-01-19T13:57:54;3.50;99.90
2913;DHT22;1466;48.778;9.166;2023-01-19T14:00:23;3.40;99.90
2913;DHT22;1466;48.778;9.166;2023-01-19T14:02:55;3.40;99.90
2913;DHT22;1466;48.778;9.166;2023-01-19T14:05:39;3.60;99.90
2913;DHT22;1466;48.778;9.166;2023-01-19T14:13:22;3.70;99.90
2913;DHT22;1466;48.778;9.166;2023-01-19T14:15:51;3.70;99.90
2913;DHT22;1466;48.778;9.166;2023-01-19T14:23:46;3.90;99.90
2913;DHT22;1466;48.778;9.166;2023-01-19T14:32:13;4.00;99.90
2913;DHT22;1466;48.778;9.166;2023-01-19T14:34:40;4.00;99.90
2913;DHT22;1466;48.778;9.166;2023-01-19T14:37:28;4.10;99.90
2913;DHT22;1466;48.778;9.166;2023-01-19T14:40:02;4.10;99.90
2913;DHT22;1466;48.778;9.166;2023-01-19T14:42:58;4.10;99.90
2913;DHT22;1466;48.778;9.166;2023-01-19T14:50:26;4.00;99.90
2913;DHT22;1466;48.778;9.166;2023-01-19T14:53:02;4.10;99.90
2913;DHT22;1466;48.778;9.166;2023-01-19T14:55:53;4.00;99.90
2913;DHT22;1466;48.778;9.166;2023-01-19T14:58:27;4.00;99.90
2913;DHT22;1466;48.778;9.166;2023-01-19T15:00:53;4.00;99.90
2913;DHT22;1466;48.778;9.166;2023-01-19T15:03:21;4.00;99.90
2913;DHT22;1466;48.778;9.166;2023-01-19T15:05:47;4.10;99.90
2913;DHT22;1466;48.778;9.166;2023-01-19T15:08:32;4.10;99.90
2913;DHT22;1466;48.778;9.166;2023-01-19T15:11:07;4.20;99.90
2913;DHT22;1466;48.778;9.166;2023-01-19T15:13:33;4.10;99.90
2913;DHT22;1466;48.778;9.166;2023-01-19T15:15:59;4.10;99.90
2913;DHT22;1466;48.778;9.166;2023-01-19T15:18:25;4.10;99.90
2913;DHT22;1466;48.778;9.166;2023-01-19T15:20:52;4.10;99.90
2913;DHT22;1466;48.778;9.166;2023-01-19T15:23:19;4.20;99.90
2913;DHT22;1466;48.778;9.166;2023-01-19T15:25:45;4.20;99.90
2913;DHT22;1466;48.778;9.166;2023-01-19T15:28:17;4.30;99.90
2913;DHT22;1466;48.778;9.166;2023-01-19T15:30:43;4.30;99.90
2913;DHT22;1466;48.778;9.166;2023-01-19T15:33:23;4.20;99.90
2913;DHT22;1466;48.778;9.166;2023-01-19T15:35:49;4.20;99.90
2913;DHT22;1466;48.778;9.166;2023-01-19T15:38:15;4.20;99.90
2913;DHT22;1466;48.778;9.166;2023-01-19T15:40:41;4.20;99.90
2913;DHT22;1466;48.778;9.166;2023-01-19T15:43:09;4.20;99.90
2913;DHT22;1466;48.778;9.166;2023-01-19T15:45:52;4.30;99.90
2913;DHT22;1466;48.778;9.166;2023-01-19T15:48:19;4.30;99.90
2913;DHT22;1466;48.778;9.166;2023-01-19T15:50:46;4.30;99.90
2913;DHT22;1466;48.778;9.166;2023-01-19T15:53:17;4.30;99.90
2913;DHT22;1466;48.778;9.166;2023-01-19T15:55:43;4.30;99.90
2913;DHT22;1466;48.778;9.166;2023-01-19T15:58:09;4.30;99.90
2913;DHT22;1466;48.778;9.166;2023-01-19T16:00:37;4.20;99.90
2913;DHT22;1466;48.778;9.166;2023-01-19T16:03:03;4.20;99.90
2913;DHT22;1466;48.778;9.166;2023-01-19T16:05:29;4.20;99.90
2913;DHT22;1466;48.778;9.166;2023-01-19T16:07:54;4.10;99.90
2913;DHT22;1466;48.778;9.166;2023-01-19T16:10:20;4.10;99.90
2913;DHT22;1466;48.778;9.166;2023-01-19T16:12:46;4.10;99.90
2913;DHT22;1466;48.778;9.166;2023-01-19T16:15:15;4.20;99.90
2913;DHT22;1466;48.778;9.166;2023-01-19T16:17:41;4.20;99.90
2913;DHT22;1466;48.778;9.166;2023-01-19T16:20:08;4.20;99.90
2913;DHT22;1466;48.778;9.166;2023-01-19T16:22:34;4.20;99.90
2913;DHT22;1466;48.778;9.166;2023-01-19T16:25:01;4.30;99.90
2913;DHT22;1466;48.778;9.166;2023-01-19T16:27:27;4.30;99.90
2913;DHT22;1466;48.778;9.166;2023-01-19T16:29:52;4.30;99.90
2913;DHT22;1466;48.778;9.166;2023-01-19T16:32:18;4.40;99.90
2913;DHT22;1466;48.778;9.166;2023-01-19T16:34:44;4.30;99.90
2913;DHT22;1466;48.778;9.166;2023-01-19T16:37:10;4.30;99.90
2913;DHT22;1466;48.778;9.166;2023-01-19T16:39:36;4.30;99.90
2913;DHT22;1466;48.778;9.166;2023-01-19T16:42:01;4.20;99.90
2913;DHT22;1466;48.778;9.166;2023-01-19T16:44:27;4.20;99.90
2913;DHT22;1466;48.778;9.166;2023-01-19T16:46:52;4.20;99.90
2913;DHT22;1466;48.778;9.166;2023-01-19T16:49:24;4.20;99.90
2913;DHT22;1466;48.778;9.166;2023-01-19T16:51:51;4.10;99.90
2913;DHT22;1466;48.778;9.166;2023-01-19T16:54:21;4.20;99.90
2913;DHT22;1466;48.778;9.166;2023-01-19T16:56:47;4.10;99.90
2913;DHT22;1466;48.778;9.166;2023-01-19T16:59:15;4.10;99.90
2913;DHT22;1466;48.778;9.166;2023-01-19T17:01:41;4.10;99.90
2913;DHT22;1466;48.778;9.166;2023-01-19T17:04:09;4.10;99.90
2913;DHT22;1466;48.778;9.166;2023-01-19T17:06:35;4.00;99.90
2913;DHT22;1466;48.778;9.166;2023-01-19T17:09:01;4.00;99.90
2913;DHT22;1466;48.778;9.166;2023-01-19T17:11:28;4.00;99.90
2913;DHT22;1466;48.778;9.166;2023-01-19T17:13:57;3.90;99.90
2913;DHT22;1466;48.778;9.166;2023-01-19T17:16:25;4.00;99.90
2913;DHT22;1466;48.778;9.166;2023-01-19T17:18:52;4.10;99.90
2913;DHT22;1466;48.778;9.166;2023-01-19T17:21:18;4.10;99.90
2913;DHT22;1466;48.778;9.166;2023-01-19T17:23:46;4.10;99.90
2913;DHT22;1466;48.778;9.166;2023-01-19T17:26:12;4.00;99.90
2913;DHT22;1466;48.778;9.166;2023-01-19T17:28:39;3.90;99.90
2913;DHT22;1466;48.778;9.166;2023-01-19T17:31:06;3.90;99.90
2913;DHT22;1466;48.778;9.166;2023-01-19T17:33:32;3.90;99.90
2913;DHT22;1466;48.778;9.166;2023-01-19T17:36:03;3.90;99.90
2913;DHT22;1466;48.778;9.166;2023-01-19T17:38:28;3.90;99.90
2913;DHT22;1466;48.778;9.166;2023-01-19T17:40:54;4.00;99.90
2913;DHT22;1466;48.778;9.166;2023-01-19T17:43:19;4.00;99.90
2913;DHT22;1466;48.778;9.166;2023-01-19T17:45:45;4.00;99.90
2913;DHT22;1466;48.778;9.166;2023-01-19T17:48:11;4.00;99.90